Time;durP1;ratioP1;P1;durP2;ratioP2;P2;SDS_P1;SDS_P2;PMS_P1;PMS_P2;Temp;Humidity;BMP_temperature;BMP_pressure;BME280_temperature;BME280_humidity;BME280_pressure;Samples;Min_cycle;Max_cycle;Signal;HPM_P1;HPM_P2
2022/05/24 00:01:01;;;;;;;1.48;0.90;;;;;;;16.20;56.39;99722.84;5589388;31;34746;-68
2022/05/24 00:04:04;;;;;;;2.37;1.05;;;;;;;16.33;56.08;99704.78;5589313;31;33947;-68
2022/05/24 00:07:06;;;;;;;3.15;1.00;;;;;;;16.27;56.12;99708.34;5589763;31;34004;-68
2022/05/24 00:10:13;;;;;;;1.85;1.20;;;;;;;16.02;57.06;99707.56;5588126;31;35105;-68
2022/05/24 00:13:16;;;;;;;1.48;1.10;;;;;;;16.12;56.64;99715.91;5589426;31;33995;-68
2022/05/24 00:16:21;;;;;;;1.67;1.20;;;;;;;16.05;56.96;99715.16;5589353;31;34644;-68
2022/05/24 00:19:23;;;;;;;2.60;1.08;;;;;;;16.02;57.25;99704.91;5588643;31;33190;-68
2022/05/24 00:22:27;;;;;;;1.40;1.10;;;;;;;16.08;57.24;99706.69;5589296;31;33920;-67
2022/05/24 00:25:38;;;;;;;1.35;1.08;;;;;;;15.88;57.54;99706.84;5589419;31;33955;-68
2022/05/24 00:28:41;;;;;;;1.25;0.90;;;;;;;15.99;57.24;99703.47;5589306;31;33746;-68
2022/05/24 00:31:43;;;;;;;2.03;1.10;;;;;;;15.92;57.26;99704.56;5589140;31;35091;-68
2022/05/24 00:34:46;;;;;;;1.10;1.00;;;;;;;16.15;56.58;99688.72;5588157;31;32882;-68
2022/05/24 00:37:50;;;;;;;1.37;1.00;;;;;;;16.04;56.90;99697.47;5589124;31;34096;-68
2022/05/24 00:40:59;;;;;;;3.70;1.20;;;;;;;16.04;57.04;99700.12;5589316;31;34606;-68
2022/05/24 00:44:07;;;;;;;1.30;1.02;;;;;;;16.08;56.92;99702.16;5588955;31;34050;-68
2022/05/24 00:47:16;;;;;;;2.37;1.10;;;;;;;16.06;56.86;99698.88;5589298;31;35252;-68
2022/05/24 00:50:41;;;;;;;4.22;1.00;;;;;;;16.11;56.33;99689.37;5588854;31;33934;-67
2022/05/24 00:53:51;;;;;;;2.17;1.20;;;;;;;16.00;56.44;99691.72;5588273;31;33614;-68
2022/05/24 00:57:09;;;;;;;1.40;1.10;;;;;;;16.04;56.64;99687.56;5588137;31;32313;-68
2022/05/24 01:00:19;;;;;;;2.03;1.20;;;;;;;15.98;56.96;99692.97;5588706;31;34546;-68
2022/05/24 01:03:22;;;;;;;2.55;1.15;;;;;;;15.93;56.90;99696.31;5587899;31;34268;-67
2022/05/24 01:06:25;;;;;;;1.02;0.90;;;;;;;16.06;56.49;99698.06;5588529;31;34678;-67
2022/05/24 01:09:45;;;;;;;1.77;1.05;;;;;;;15.93;56.99;99698.97;5588646;31;34057;-68
2022/05/24 01:12:56;;;;;;;4.20;1.10;;;;;;;15.93;56.87;99698.16;5587782;31;33921;-68
2022/05/24 01:15:59;;;;;;;1.85;1.15;;;;;;;16.04;56.76;99687.56;5588464;31;34600;-67
2022/05/24 01:19:05;;;;;;;1.37;1.00;;;;;;;15.94;56.69;99694.47;5588692;31;34363;-68
2022/05/24 01:22:44;;;;;;;1.92;1.27;;;;;;;16.04;56.70;99694.78;5589625;31;33953;-67
2022/05/24 01:26:06;;;;;;;2.60;1.05;;;;;;;15.85;56.83;99690.44;5591309;31;34801;-67
2022/05/24 01:29:09;;;;;;;1.08;0.90;;;;;;;15.77;57.05;99691.53;5590675;31;33951;-68
2022/05/24 01:39:02;;;;;;;1.87;1.10;;;;;;;15.92;57.22;99697.38;5590673;31;34617;-68
2022/05/24 01:42:06;;;;;;;1.37;1.10;;;;;;;15.95;56.80;99696.91;5590633;31;34060;-68
2022/05/24 01:45:20;;;;;;;1.37;1.05;;;;;;;15.99;56.57;99699.97;5590637;31;33874;-68
2022/05/24 01:48:46;;;;;;;7.22;1.40;;;;;;;15.97;56.67;99718.13;5591035;31;33926;-68
2022/05/24 01:52:19;;;;;;;1.30;1.10;;;;;;;15.88;57.11;99714.88;5590625;31;34724;-68
2022/05/24 01:55:29;;;;;;;2.03;1.15;;;;;;;15.97;58.56;99724.28;5590580;31;33925;-68
2022/05/24 01:58:35;;;;;;;1.55;1.00;;;;;;;16.00;58.14;99733.72;5590612;31;33817;-68
2022/05/24 02:01:51;;;;;;;6.15;1.10;;;;;;;16.06;57.53;99752.41;5590531;31;33908;-68
2022/05/24 02:04:54;;;;;;;3.80;1.17;;;;;;;15.85;58.93;99739.38;5589532;31;32787;-68
2022/05/24 02:08:00;;;;;;;2.28;1.27;;;;;;;15.63;65.29;99743.47;5590687;31;34327;-68
2022/05/24 02:11:03;;;;;;;1.42;1.20;;;;;;;15.45;65.98;99728.09;5589745;31;35263;-68
2022/05/24 02:14:13;;;;;;;4.43;1.30;;;;;;;15.39;69.11;99709.47;5590610;31;33974;-68
2022/05/24 02:17:20;;;;;;;8.82;2.22;;;;;;;15.37;70.07;99682.94;5590390;31;35120;-67
2022/05/24 02:20:28;;;;;;;2.10;1.10;;;;;;;15.12;71.81;99658.81;5590352;31;35215;-68
2022/05/24 02:23:42;;;;;;;7.07;1.20;;;;;;;15.23;66.02;99681.37;5590365;31;34102;-66
2022/05/24 02:26:47;;;;;;;2.10;1.10;;;;;;;15.15;63.52;99711.81;5590254;31;33565;-68
2022/05/24 02:29:49;;;;;;;1.55;1.08;;;;;;;15.19;64.45;99717.59;5585447;31;136989;-68
2022/05/24 02:32:52;;;;;;;4.05;1.50;;;;;;;15.00;67.72;99737.19;5589562;31;33885;-68
2022/05/24 02:35:56;;;;;;;4.15;1.87;;;;;;;14.54;70.91;99742.66;5589644;31;33989;-68
2022/05/24 02:38:59;;;;;;;3.42;1.52;;;;;;;14.10;78.65;99757.47;5590406;31;34532;-68
2022/05/24 02:42:03;;;;;;;3.42;1.40;;;;;;;13.99;76.93;99747.41;5590283;31;34101;-68
2022/05/24 02:45:06;;;;;;;4.75;1.77;;;;;;;13.76;79.94;99747.00;5590502;31;34670;-68
2022/05/24 02:48:09;;;;;;;3.05;1.70;;;;;;;13.47;86.46;99751.66;5590287;31;33909;-67
2022/05/24 02:51:14;;;;;;;2.75;1.55;;;;;;;13.16;90.83;99753.22;5590246;31;34605;-68
2022/05/24 02:54:17;;;;;;;4.37;2.00;;;;;;;13.07;95.75;99768.50;5590166;31;34373;-68
2022/05/24 02:57:19;;;;;;;4.85;1.77;;;;;;;12.93;99.32;99766.78;5590238;31;34051;-67
2022/05/24 03:00:23;;;;;;;8.93;1.95;;;;;;;12.86;100.00;99772.09;5590167;31;33875;-67
2022/05/24 03:03:26;;;;;;;4.68;2.17;;;;;;;12.71;100.00;99770.56;5589676;31;34007;-67
2022/05/24 03:09:33;;;;;;;6.30;2.12;;;;;;;12.58;100.00;99772.16;5590379;31;35136;-67
2022/05/24 03:09:52;;;;;;;4.75;2.15;;;;;;;12.83;100.00;99766.38;5590185;31;34305;-68
2022/05/24 03:16:17;;;;;;;6.12;2.45;;;;;;;12.66;100.00;99765.03;5589426;31;32416;-68
2022/05/24 03:19:21;;;;;;;8.10;2.83;;;;;;;12.65;100.00;99761.53;5590006;31;34629;-68
2022/05/24 03:22:24;;;;;;;4.35;2.65;;;;;;;12.54;100.00;99764.72;5590035;31;34614;-68
2022/05/24 03:25:27;;;;;;;7.60;2.80;;;;;;;12.55;100.00;99766.38;5589128;31;33987;-68
2022/05/24 03:28:30;;;;;;;6.90;2.87;;;;;;;12.50;100.00;99774.13;5589847;31;35282;-68
2022/05/24 03:31:35;;;;;;;6.25;2.85;;;;;;;12.47;100.00;99772.69;5589093;31;32444;-68
2022/05/24 03:34:40;;;;;;;8.13;2.87;;;;;;;12.44;100.00;99786.38;5589885;31;34682;-67
2022/05/24 03:37:43;;;;;;;6.40;3.20;;;;;;;12.40;100.00;99781.63;5576278;31;34037;-68
2022/05/24 03:40:46;;;;;;;6.40;3.22;;;;;;;12.41;100.00;99800.06;5589676;31;34119;-67
2022/05/24 03:43:49;;;;;;;6.28;2.97;;;;;;;12.42;100.00;99807.03;5589597;31;33978;-68
2022/05/24 03:46:53;;;;;;;3.47;2.58;;;;;;;12.50;100.00;99822.03;5589859;31;34320;-67
2022/05/24 03:49:55;;;;;;;4.85;2.50;;;;;;;12.50;100.00;99827.34;5589789;31;34017;-67
2022/05/24 03:52:58;;;;;;;4.45;2.60;;;;;;;12.45;100.00;99832.41;5589604;31;34077;-67
2022/05/24 03:56:01;;;;;;;4.72;2.80;;;;;;;12.50;100.00;99825.50;5589550;31;33989;-66
2022/05/24 03:59:05;;;;;;;3.97;2.80;;;;;;;12.54;100.00;99824.09;5588922;31;34477;-66
2022/05/24 04:02:07;;;;;;;4.68;2.83;;;;;;;12.48;100.00;99819.56;5576055;31;32326;-66
2022/05/24 04:05:11;;;;;;;3.10;2.53;;;;;;;12.51;100.00;99816.50;5589629;31;34536;-66
2022/05/24 04:08:19;;;;;;;4.25;2.58;;;;;;;12.44;100.00;99820.94;5590029;31;33813;-66
2022/05/24 04:11:22;;;;;;;4.35;3.00;;;;;;;12.34;100.00;99825.81;5589363;31;34103;-66
2022/05/24 04:14:25;;;;;;;5.57;2.83;;;;;;;12.28;100.00;99825.75;5588796;31;32610;-66
2022/05/24 04:17:28;;;;;;;5.28;2.92;;;;;;;12.42;100.00;99825.66;5589450;31;34372;-66
2022/05/24 04:20:30;;;;;;;3.62;2.80;;;;;;;12.34;100.00;99831.13;5589438;31;34630;-66
2022/05/24 04:23:33;;;;;;;4.15;2.85;;;;;;;12.28;100.00;99829.22;5589331;31;33971;-66
2022/05/24 04:26:35;;;;;;;4.68;3.00;;;;;;;12.31;100.00;99833.31;5589436;31;34725;-66
2022/05/24 04:29:41;;;;;;;4.22;3.17;;;;;;;12.48;100.00;99832.87;5588729;31;32502;-66
2022/05/24 04:32:43;;;;;;;4.47;2.97;;;;;;;12.56;100.00;99839.88;5589070;31;34511;-65
2022/05/24 04:35:47;;;;;;;4.85;3.17;;;;;;;12.63;100.00;99835.44;5589186;31;34632;-65
2022/05/24 04:38:49;;;;;;;3.35;3.03;;;;;;;12.59;100.00;99842.13;5589238;31;34039;-65
2022/05/24 04:45:16;;;;;;;5.12;3.33;;;;;;;12.54;100.00;99841.91;5589381;31;33827;-65
2022/05/24 04:48:20;;;;;;;5.12;3.25;;;;;;;12.59;100.00;99836.81;5588107;31;32683;-65
2022/05/24 04:51:22;;;;;;;3.70;2.92;;;;;;;12.59;100.00;99840.31;5588935;31;34042;-65
2022/05/24 04:54:26;;;;;;;7.72;3.15;;;;;;;12.56;100.00;99837.22;5588880;31;33865;-65
2022/05/24 04:57:28;;;;;;;5.10;2.90;;;;;;;12.49;100.00;99836.38;5587090;31;33239;-65
2022/05/24 05:00:31;;;;;;;3.92;3.03;;;;;;;12.54;100.00;99833.91;5587663;31;32357;-65
2022/05/24 05:03:35;;;;;;;7.45;3.12;;;;;;;12.55;100.00;99848.87;5588066;31;32851;-65
2022/05/24 05:06:43;;;;;;;4.95;2.83;;;;;;;12.42;100.00;99846.94;5587684;31;34414;-65
2022/05/24 05:09:50;;;;;;;4.25;3.00;;;;;;;12.39;100.00;99849.97;5587735;31;32737;-65
2022/05/24 05:12:53;;;;;;;4.68;3.25;;;;;;;12.49;100.00;99844.34;5587663;31;32969;-65
2022/05/24 05:15:56;;;;;;;4.10;3.00;;;;;;;12.46;100.00;99850.84;5588392;31;34694;-65
2022/05/24 05:18:59;;;;;;;6.10;3.17;;;;;;;12.54;100.00;99847.22;5587733;31;32653;-66
2022/05/24 05:22:04;;;;;;;4.60;3.62;;;;;;;12.55;100.00;99859.50;5587070;31;32750;-66
2022/05/24 05:25:07;;;;;;;5.07;3.60;;;;;;;12.54;100.00;99857.84;5588008;31;33973;-66
2022/05/24 05:28:10;;;;;;;6.37;3.60;;;;;;;12.47;100.00;99864.97;5588182;31;34191;-66
2022/05/24 05:31:23;;;;;;;7.57;3.80;;;;;;;12.46;100.00;99864.16;5588071;31;34026;-66
2022/05/24 05:34:25;;;;;;;6.37;3.75;;;;;;;12.44;100.00;99863.50;5574230;31;32394;-66
2022/05/24 05:37:32;;;;;;;5.32;3.80;;;;;;;12.35;100.00;99863.84;5587770;31;33962;-66
2022/05/24 05:40:34;;;;;;;7.53;4.00;;;;;;;12.30;100.00;99863.59;5587595;31;34644;-65
2022/05/24 05:43:37;;;;;;;7.15;4.18;;;;;;;12.25;100.00;99872.16;5586895;31;34155;-65
2022/05/24 05:46:41;;;;;;;5.20;3.97;;;;;;;12.33;100.00;99864.06;5586602;31;32225;-66
2022/05/24 05:49:45;;;;;;;7.12;4.35;;;;;;;12.37;100.00;99869.81;5586781;31;32860;-65
2022/05/24 05:52:52;;;;;;;7.97;3.80;;;;;;;12.32;100.00;99870.38;5586660;31;33916;-66
2022/05/24 05:55:55;;;;;;;10.45;6.50;;;;;;;12.29;100.00;99870.78;5586736;31;32560;-66
2022/05/24 05:58:58;;;;;;;5.82;4.20;;;;;;;12.23;100.00;99884.00;5586307;31;32593;-66
2022/05/24 06:02:04;;;;;;;7.10;4.60;;;;;;;12.17;100.00;99881.09;5586277;31;33978;-66
2022/05/24 06:05:07;;;;;;;7.55;4.80;;;;;;;12.13;100.00;99885.16;5587117;31;34107;-65
2022/05/24 06:08:10;;;;;;;7.12;4.10;;;;;;;12.33;100.00;99890.66;5587391;31;32557;-65
2022/05/24 06:11:13;;;;;;;5.93;4.60;;;;;;;12.52;100.00;99881.19;5589735;31;32324;-67
2022/05/24 06:14:16;;;;;;;7.40;4.53;;;;;;;12.46;100.00;99877.47;5589415;31;32906;-65
2022/05/24 06:17:52;;;;;;;5.57;4.20;;;;;;;12.51;100.00;99879.53;5590216;31;34385;-65
2022/05/24 06:20:55;;;;;;;6.80;4.05;;;;;;;12.45;100.00;99874.97;5589973;31;33946;-65
2022/05/24 06:24:06;;;;;;;6.12;4.30;;;;;;;12.43;100.00;99879.69;5590115;31;35054;-65
2022/05/24 06:27:09;;;;;;;5.32;3.72;;;;;;;12.40;100.00;99890.69;5576471;31;32476;-66
2022/05/24 06:30:13;;;;;;;8.02;4.18;;;;;;;12.59;100.00;99877.56;5576211;31;32447;-66
2022/05/24 06:33:15;;;;;;;5.47;3.92;;;;;;;12.69;100.00;99877.22;5589269;31;32581;-65
2022/05/24 06:36:19;;;;;;;7.85;4.03;;;;;;;12.73;100.00;99875.81;5590019;31;34562;-65
2022/05/24 06:39:22;;;;;;;7.18;4.43;;;;;;;12.57;100.00;99876.12;5589501;31;32626;-65
2022/05/24 06:42:25;;;;;;;6.62;3.97;;;;;;;12.55;100.00;99881.63;5590033;31;33942;-65
2022/05/24 06:45:29;;;;;;;6.43;4.07;;;;;;;12.65;100.00;99878.63;5589801;31;34831;-65
2022/05/24 06:48:32;;;;;;;5.05;4.15;;;;;;;12.52;100.00;99879.34;5589185;31;33472;-66
2022/05/24 06:51:34;;;;;;;4.95;3.83;;;;;;;12.77;100.00;99890.41;5588840;31;33806;-64
2022/05/24 06:54:37;;;;;;;5.60;4.15;;;;;;;12.83;100.00;99888.81;5588445;31;32567;-65
2022/05/24 06:57:39;;;;;;;6.10;3.70;;;;;;;12.71;100.00;99877.03;5589130;31;32758;-65
2022/05/24 07:04:04;;;;;;;6.53;4.12;;;;;;;12.81;100.00;99889.00;5589694;31;34722;-65
2022/05/24 07:07:07;;;;;;;6.00;3.72;;;;;;;12.92;100.00;99884.97;5589509;31;34605;-65
2022/05/24 07:10:13;;;;;;;6.25;3.72;;;;;;;13.06;100.00;99886.72;5589922;31;34598;-65
2022/05/24 07:13:18;;;;;;;5.20;3.58;;;;;;;13.21;100.00;99883.97;5589004;31;32545;-65
2022/05/24 07:16:21;;;;;;;5.45;3.97;;;;;;;13.18;100.00;99881.66;5588659;31;31858;-65
2022/05/24 07:19:25;;;;;;;6.22;4.05;;;;;;;13.17;100.00;99888.84;5588343;31;36075;-65
2022/05/24 07:22:28;;;;;;;6.30;4.60;;;;;;;13.40;100.00;99878.72;5589602;31;34819;-65
2022/05/24 07:25:31;;;;;;;4.87;3.47;;;;;;;13.74;100.00;99877.84;5588920;31;33845;-65
2022/05/24 07:28:36;;;;;;;4.35;3.58;;;;;;;14.14;100.00;99884.06;5588909;31;33989;-66
2022/05/24 07:31:38;;;;;;;3.65;3.03;;;;;;;14.51;100.00;99884.56;5589683;31;34043;-66
2022/05/24 07:34:41;;;;;;;4.22;2.72;;;;;;;15.05;100.00;99893.16;5589742;31;33862;-65
2022/05/24 07:37:45;;;;;;;5.70;3.08;;;;;;;15.35;100.00;99882.78;5589628;31;34112;-66
2022/05/24 07:47:30;;;;;;;3.33;2.58;;;;;;;15.39;100.00;99877.84;5589343;31;34232;-65
2022/05/24 07:50:34;;;;;;;5.87;3.40;;;;;;;16.48;100.00;99887.34;5575945;31;33313;-65
2022/05/24 07:53:37;;;;;;;3.47;2.87;;;;;;;16.98;94.06;99891.88;5588976;31;33558;-67
2022/05/24 07:56:41;;;;;;;4.75;2.92;;;;;;;17.38;91.17;99880.50;5589307;31;34027;-67
2022/05/24 07:59:47;;;;;;;3.22;2.45;;;;;;;17.09;94.07;99885.81;5589411;31;34690;-67
2022/05/24 08:02:52;;;;;;;9.07;2.83;;;;;;;17.26;90.63;99884.97;5589627;31;34639;-67
2022/05/24 08:05:55;;;;;;;2.97;2.50;;;;;;;17.58;89.05;99890.16;5588886;31;34198;-67
2022/05/24 08:08:58;;;;;;;4.12;2.25;;;;;;;17.87;87.62;99897.47;5588168;31;33062;-68
2022/05/24 08:12:01;;;;;;;3.28;2.70;;;;;;;17.59;86.80;99902.56;5588441;31;32691;-67
2022/05/24 08:15:04;;;;;;;3.62;2.72;;;;;;;17.54;86.70;99892.50;5589405;31;34687;-68
2022/05/24 08:18:08;;;;;;;5.32;2.90;;;;;;;17.34;86.99;99895.41;5588501;31;33781;-67
2022/05/24 08:21:11;;;;;;;4.78;2.90;;;;;;;17.65;84.93;99896.31;5588344;31;34636;-69
2022/05/24 08:24:16;;;;;;;6.80;2.80;;;;;;;17.30;86.42;99891.53;5589468;31;35232;-69
2022/05/24 08:27:19;;;;;;;2.20;2.00;;;;;;;17.24;84.14;99891.59;5588796;31;34001;-69
2022/05/24 08:30:22;;;;;;;4.47;2.45;;;;;;;17.51;86.10;99890.28;5588278;31;34632;-69
2022/05/24 08:33:28;;;;;;;4.35;2.62;;;;;;;17.26;82.54;99884.97;5587988;31;33831;-69
2022/05/24 08:36:30;;;;;;;3.22;2.22;;;;;;;17.53;81.06;99884.66;5588812;31;34030;-69
2022/05/24 08:39:33;;;;;;;5.07;2.50;;;;;;;17.41;81.79;99881.94;5588207;31;33556;-70
2022/05/24 08:43:02;;;;;;;4.47;2.30;;;;;;;17.84;82.18;99897.09;5589225;31;33994;-69
2022/05/24 08:49:37;;;;;;;2.62;1.98;;;;;;;18.05;80.18;99886.72;5589349;31;34182;-70
2022/05/24 08:52:47;;;;;;;2.12;1.92;;;;;;;18.41;78.74;99882.22;5589122;31;34667;-69
2022/05/24 08:55:50;;;;;;;1.60;1.48;;;;;;;18.72;72.82;99883.84;5588191;31;33396;-70
2022/05/24 08:59:11;;;;;;;2.37;1.80;;;;;;;19.16;70.44;99887.81;5588736;31;34039;-69
2022/05/24 09:02:14;;;;;;;3.87;1.70;;;;;;;19.25;69.98;99883.69;5588683;31;34087;-69
2022/05/24 09:05:22;;;;;;;2.70;1.50;;;;;;;19.48;67.27;99884.50;5588655;31;34008;-70
2022/05/24 09:08:28;;;;;;;4.05;1.48;;;;;;;19.54;68.60;99877.34;5588114;31;35175;-70
2022/05/24 09:11:52;;;;;;;3.97;1.55;;;;;;;19.14;67.12;99874.59;5588440;31;34619;-69
2022/05/24 09:15:16;;;;;;;2.33;1.40;;;;;;;19.94;65.94;99877.34;5587742;31;32483;-69
2022/05/24 09:18:45;;;;;;;1.60;1.23;;;;;;;19.99;64.17;99888.22;5587461;31;32441;-68
2022/05/24 09:21:52;;;;;;;1.55;1.20;;;;;;;19.83;61.80;99883.59;5587482;31;32540;-69
2022/05/24 09:24:58;;;;;;;6.75;1.17;;;;;;;19.58;63.69;99883.06;5586950;31;33888;-68
2022/05/24 09:28:02;;;;;;;2.20;1.20;;;;;;;19.65;63.38;99881.91;5587800;31;33888;-69
2022/05/24 09:31:05;;;;;;;2.53;1.50;;;;;;;19.67;63.48;99889.72;5587036;31;32550;-69
2022/05/24 09:34:17;;;;;;;1.95;1.40;;;;;;;19.55;63.93;99886.25;5586101;31;32420;-69
2022/05/24 09:37:23;;;;;;;2.00;1.20;;;;;;;19.44;65.67;99891.41;5586873;31;33607;-68
2022/05/24 09:40:26;;;;;;;1.83;1.30;;;;;;;19.86;64.24;99881.22;5587459;31;34633;-69
2022/05/24 09:43:33;;;;;;;1.30;1.17;;;;;;;20.13;63.83;99881.47;5576413;31;35264;-69
2022/05/24 09:46:36;;;;;;;3.22;1.27;;;;;;;20.43;64.90;99877.69;5578365;31;34012;-69
2022/05/24 09:49:40;;;;;;;2.37;1.12;;;;;;;23.03;58.19;99892.13;5590893;31;34493;-68
2022/05/24 09:53:02;;;;;;;3.30;1.30;;;;;;;25.12;49.86;99898.66;5589589;31;34283;-70
2022/05/24 09:56:33;;;;;;;1.37;1.00;;;;;;;25.84;44.72;99884.56;5589908;31;35193;-69
2022/05/24 09:59:39;;;;;;;1.75;1.27;;;;;;;26.70;44.00;99883.16;5591959;31;33974;-70
2022/05/24 10:02:42;;;;;;;1.58;1.05;;;;;;;27.65;40.75;99877.81;5589103;31;32980;-69
2022/05/24 10:05:55;;;;;;;2.85;1.25;;;;;;;27.32;43.31;99885.00;5589136;31;32505;-70
2022/05/24 10:09:09;;;;;;;2.08;1.10;;;;;;;26.55;43.84;99886.00;5590131;31;34660;-69
2022/05/24 10:12:43;;;;;;;1.58;0.90;;;;;;;26.27;43.60;99879.41;5589300;31;34321;-69
2022/05/24 10:16:06;;;;;;;1.58;1.02;;;;;;;26.51;43.52;99891.19;5589672;31;32396;-69
2022/05/24 10:19:44;;;;;;;2.28;1.17;;;;;;;25.17;46.26;99892.41;5589395;31;34060;-70
2022/05/24 10:23:06;;;;;;;2.03;1.05;;;;;;;25.80;47.12;99893.53;5568628;31;34638;-68
2022/05/24 10:26:28;;;;;;;2.30;0.90;;;;;;;24.37;49.64;99892.13;5589262;31;34259;-68
2022/05/24 10:29:54;;;;;;;1.40;0.85;;;;;;;25.20;46.00;99889.13;5589021;31;32713;-68
2022/05/24 10:40:14;;;;;;;2.60;1.05;;;;;;;24.81;44.54;99873.41;5589855;31;34179;-68
2022/05/24 10:43:39;;;;;;;1.23;0.95;;;;;;;25.09;43.89;99861.19;5590050;31;34601;-69
2022/05/24 10:46:59;;;;;;;1.98;1.10;;;;;;;25.30;45.54;99856.50;5588876;31;34364;-70
2022/05/24 10:50:26;;;;;;;3.50;1.12;;;;;;;23.93;47.34;99863.84;5589696;31;34665;-67
2022/05/24 10:53:44;;;;;;;3.28;1.25;;;;;;;25.59;45.33;99853.97;5588541;31;33905;-68
2022/05/24 10:56:59;;;;;;;3.58;1.00;;;;;;;27.07;40.98;99858.84;5590118;31;35237;-68
2022/05/24 11:00:05;;;;;;;4.07;1.02;;;;;;;28.12;37.56;99863.28;5589076;31;33945;-67
2022/05/24 11:03:14;;;;;;;1.77;1.00;;;;;;;27.33;39.79;99864.81;5590048;31;33970;-68
2022/05/24 11:06:53;;;;;;;1.65;0.98;;;;;;;26.79;39.69;99865.91;5589229;31;33232;-69
2022/05/24 11:10:19;;;;;;;1.20;1.10;;;;;;;26.17;42.25;99868.56;5566269;31;33869;-67
2022/05/24 11:13:47;;;;;;;2.00;1.00;;;;;;;27.92;38.40;99869.00;5577795;31;33515;-67
2022/05/24 11:16:52;;;;;;;2.25;1.20;;;;;;;30.46;34.17;99849.37;5588924;31;32352;-68
2022/05/24 11:19:56;;;;;;;4.15;1.10;;;;;;;29.13;36.15;99844.34;5589700;31;33947;-69
2022/05/24 11:23:11;;;;;;;5.62;1.30;;;;;;;31.53;32.36;99842.63;5590181;31;34208;-69
2022/05/24 11:26:24;;;;;;;1.40;1.00;;;;;;;31.52;32.60;99846.50;5589215;31;34008;-69
2022/05/24 11:29:50;;;;;;;6.65;1.10;;;;;;;31.70;31.15;99847.38;5589669;31;34312;-69
2022/05/24 11:33:02;;;;;;;1.60;1.27;;;;;;;32.26;30.82;99851.94;5589554;31;34244;-69
2022/05/24 11:36:27;;;;;;;3.35;1.00;;;;;;;31.89;30.77;99848.69;5588563;31;32853;-69
2022/05/24 11:39:34;;;;;;;3.17;1.02;;;;;;;33.42;29.32;99845.16;5589432;31;34010;-69
2022/05/24 11:42:40;;;;;;;2.20;1.20;;;;;;;33.31;29.61;99838.41;5575949;31;32749;-70
2022/05/24 11:45:53;;;;;;;1.58;1.00;;;;;;;31.38;31.14;99834.84;5589477;31;34261;-70
2022/05/24 11:48:57;;;;;;;1.45;1.10;;;;;;;33.28;28.66;99832.78;5589554;31;33878;-69
2022/05/24 11:52:21;;;;;;;1.62;0.93;;;;;;;31.43;30.98;99830.03;5588515;31;33018;-70
2022/05/24 11:56:08;;;;;;;1.67;1.02;;;;;;;33.31;29.43;99832.13;5588869;31;32257;-69
2022/05/24 11:59:40;;;;;;;1.45;1.23;;;;;;;31.78;30.58;99830.12;5589618;31;33199;-70
2022/05/24 12:10:06;;;;;;;4.82;1.52;;;;;;;34.00;28.84;99813.22;5589445;31;33900;-69
2022/05/24 12:13:29;;;;;;;2.10;1.35;;;;;;;35.51;26.32;99816.84;5588511;31;34846;-69
2022/05/24 12:17:06;;;;;;;2.00;1.20;;;;;;;35.52;26.52;99801.91;5589208;31;33866;-70
2022/05/24 12:20:48;;;;;;;1.55;1.30;;;;;;;33.35;29.30;99813.84;5588824;31;32466;-68
2022/05/24 12:23:50;;;;;;;4.97;1.55;;;;;;;33.51;29.09;99812.09;5588961;31;33869;-69
2022/05/24 12:27:15;;;;;;;2.85;1.20;;;;;;;33.10;29.37;99797.13;5589414;31;34092;-70
2022/05/24 12:30:21;;;;;;;2.53;1.10;;;;;;;35.21;27.52;99799.75;5589476;31;33977;-68
2022/05/24 12:33:24;;;;;;;1.52;1.23;;;;;;;35.86;25.22;99800.59;5575198;31;34066;-69
2022/05/24 12:36:39;;;;;;;2.30;1.15;;;;;;;36.50;25.76;99803.19;5588488;31;33190;-70
2022/05/24 12:40:09;;;;;;;1.37;1.05;;;;;;;35.42;25.92;99796.88;5588922;31;34831;-69
2022/05/24 12:43:17;;;;;;;3.12;1.40;;;;;;;35.98;25.70;99800.53;5588268;31;34570;-69
2022/05/24 12:46:21;;;;;;;1.20;0.93;;;;;;;36.57;24.51;99799.81;5588898;31;33988;-69
2022/05/24 12:49:30;;;;;;;1.77;1.30;;;;;;;34.73;26.26;99794.19;5588726;31;34019;-69
2022/05/24 12:52:40;;;;;;;2.37;1.10;;;;;;;35.33;26.50;99795.41;5588339;31;34167;-68
2022/05/24 12:55:55;;;;;;;1.62;1.20;;;;;;;34.83;27.46;99785.50;5587424;31;32547;-69
2022/05/24 12:59:10;;;;;;;2.40;1.10;;;;;;;31.76;30.95;99789.28;5587726;31;34105;-68
2022/05/24 13:02:21;;;;;;;3.12;1.23;;;;;;;34.80;27.70;99773.22;5587935;31;32622;-68
2022/05/24 13:05:26;;;;;;;2.53;1.35;;;;;;;35.98;25.10;99767.41;5587588;31;33330;-68
2022/05/24 13:08:28;;;;;;;1.80;1.20;;;;;;;35.26;25.96;99766.44;5587482;31;32558;-67
2022/05/24 13:11:32;;;;;;;1.48;1.10;;;;;;;35.56;26.67;99766.97;5587629;31;33145;-68
2022/05/24 13:14:45;;;;;;;1.67;1.12;;;;;;;38.07;22.48;99769.75;5586806;31;34089;-69
2022/05/24 13:17:54;;;;;;;1.55;1.25;;;;;;;38.45;22.06;99770.88;5588451;31;32463;-69
2022/05/24 13:21:08;;;;;;;3.22;1.30;;;;;;;34.87;26.48;99764.34;5590196;31;34295;-68
2022/05/24 13:24:17;;;;;;;1.40;1.10;;;;;;;35.19;25.51;99763.47;5589734;31;34144;-68
2022/05/24 13:27:21;;;;;;;2.00;1.30;;;;;;;35.80;24.61;99774.38;5590054;31;33196;-68
2022/05/24 13:34:25;;;;;;;1.83;1.20;;;;;;;33.34;27.82;99759.97;5589978;31;33107;-68
2022/05/24 13:37:49;;;;;;;2.15;1.20;;;;;;;32.78;27.83;99764.75;5589625;31;32348;-67
2022/05/24 13:40:58;;;;;;;2.95;1.20;;;;;;;31.64;31.43;99758.97;5589804;31;34011;-68
2022/05/24 13:44:09;;;;;;;4.15;1.20;;;;;;;29.62;34.96;99751.53;5589649;31;32869;-67
2022/05/24 13:47:27;;;;;;;2.30;1.35;;;;;;;30.79;31.87;99751.31;5589459;31;34001;-67
2022/05/24 13:50:40;;;;;;;1.50;1.08;;;;;;;31.00;32.01;99744.94;5589064;31;32645;-67
2022/05/24 13:53:46;;;;;;;2.20;1.40;;;;;;;31.99;31.07;99746.03;5590603;31;35370;-68
2022/05/24 13:56:49;;;;;;;3.25;1.30;;;;;;;31.62;30.34;99739.28;5589264;31;32694;-68
2022/05/24 14:00:10;;;;;;;1.33;1.20;;;;;;;33.78;27.48;99742.03;5589156;31;33698;-68
2022/05/24 14:03:44;;;;;;;1.73;1.30;;;;;;;33.46;27.34;99747.09;5589309;31;32463;-68
2022/05/24 14:06:50;;;;;;;1.87;1.33;;;;;;;32.64;28.35;99744.94;5589172;31;32487;-68
2022/05/24 14:09:53;;;;;;;3.03;1.10;;;;;;;33.73;26.78;99744.97;5589331;31;32729;-68
2022/05/24 14:12:56;;;;;;;2.58;1.20;;;;;;;34.22;27.17;99748.75;5589274;31;33275;-68
2022/05/24 14:16:02;;;;;;;3.12;1.08;;;;;;;33.88;27.62;99742.41;5589906;31;34174;-68
2022/05/24 14:19:05;;;;;;;1.80;0.95;;;;;;;31.81;30.60;99747.16;5576004;31;32443;-68
2022/05/24 14:22:09;;;;;;;1.83;1.30;;;;;;;29.58;34.28;99745.03;5590181;31;34041;-68
2022/05/24 14:25:13;;;;;;;2.33;1.33;;;;;;;27.93;36.61;99747.94;5575422;31;33024;-68
2022/05/24 14:28:16;;;;;;;2.55;1.25;;;;;;;27.32;38.54;99745.25;5575364;31;33308;-68
2022/05/24 14:31:22;;;;;;;2.25;1.48;;;;;;;27.06;40.40;99748.31;5589567;31;34618;-68
2022/05/24 14:34:26;;;;;;;6.72;4.00;;;;;;;27.65;40.01;99752.44;5588746;31;32457;-68
2022/05/24 14:37:29;;;;;;;4.85;3.47;;;;;;;27.90;38.70;99746.59;5588363;31;32454;-67
2022/05/24 14:40:38;;;;;;;4.20;2.35;;;;;;;29.33;36.23;99740.16;5589149;31;34676;-69
2022/05/24 14:43:44;;;;;;;4.85;1.80;;;;;;;30.52;33.51;99744.13;5587986;31;32621;-68
2022/05/24 14:46:46;;;;;;;5.07;3.37;;;;;;;31.65;31.82;99737.84;5588237;31;34218;-69
2022/05/24 14:49:49;;;;;;;6.15;3.50;;;;;;;30.78;30.14;99750.53;5589435;31;34652;-69
2022/05/24 14:52:53;;;;;;;5.78;3.08;;;;;;;31.18;30.77;99745.81;5587984;31;33316;-69
2022/05/24 14:55:57;;;;;;;9.60;5.20;;;;;;;31.85;29.83;99748.16;5588502;31;32432;-69
2022/05/24 14:59:00;;;;;;;7.12;4.32;;;;;;;28.78;33.96;99748.38;5588456;31;32576;-66
2022/05/24 15:02:04;;;;;;;8.73;4.37;;;;;;;29.58;33.08;99750.50;5587819;31;34801;-68
2022/05/24 15:05:08;;;;;;;10.68;5.57;;;;;;;29.91;32.73;99742.13;5587674;31;33841;-68
2022/05/24 15:18:20;;;;;;;14.15;5.93;;;;;;;26.89;38.79;99736.28;5588136;31;32824;-68
2022/05/24 15:21:26;;;;;;;13.48;4.30;;;;;;;27.45;37.83;99731.72;5574998;31;33279;-67
2022/05/24 15:24:35;;;;;;;4.87;2.55;;;;;;;26.00;41.27;99732.25;5588397;31;34667;-68
2022/05/24 15:27:41;;;;;;;7.30;3.03;;;;;;;25.26;42.79;99734.06;5588449;31;34655;-67
2022/05/24 15:30:44;;;;;;;7.95;3.87;;;;;;;24.72;45.22;99739.41;5587267;31;32673;-69
2022/05/24 15:33:51;;;;;;;13.77;4.95;;;;;;;24.26;44.99;99741.41;5588549;31;34697;-68
2022/05/24 15:36:54;;;;;;;9.43;3.90;;;;;;;24.26;46.31;99725.13;5589231;31;33968;-67
2022/05/24 15:39:57;;;;;;;15.02;5.43;;;;;;;24.13;46.17;99729.19;5574956;31;32530;-71